Time;durP1;ratioP1;P1;durP2;ratioP2;P2;SDS_P1;SDS_P2;PMS_P1;PMS_P2;Temp;Humidity;BMP_temperature;BMP_pressure;BME280_temperature;BME280_humidity;BME280_pressure;Samples;Min_cycle;Max_cycle;Signal;HPM_P1;HPM_P2
2022/05/08 00:02:07;;;;;;;8.95;4.00;;;18.50;64.70;;;;;;5034538;28;20370;-74
2022/05/08 00:04:33;;;;;;;7.00;3.53;;;18.40;64.60;;;;;;5034877;28;20470;-72
2022/05/08 00:06:59;;;;;;;10.90;3.60;;;18.40;64.60;;;;;;5034502;28;20536;-73
2022/05/08 00:09:25;;;;;;;7.88;3.38;;;18.40;64.80;;;;;;5034193;28;20033;-73
2022/05/08 00:11:52;;;;;;;8.27;3.35;;;18.40;64.80;;;;;;5034254;28;20025;-74
2022/05/08 00:14:18;;;;;;;11.07;3.33;;;18.40;65.20;;;;;;5034687;28;20021;-71
2022/05/08 00:16:44;;;;;;;6.32;3.58;;;18.40;64.80;;;;;;5034810;28;20119;-72
2022/05/08 00:19:10;;;;;;;5.35;3.25;;;18.40;64.90;;;;;;5034546;28;20052;-73
2022/05/08 00:21:36;;;;;;;7.85;3.83;;;18.40;65.10;;;;;;5034428;28;20497;-74
2022/05/08 00:24:03;;;;;;;6.35;3.00;;;18.40;65.20;;;;;;5034123;28;20491;-71
2022/05/08 00:26:28;;;;;;;9.38;3.42;;;18.40;65.70;;;;;;5034143;28;20536;-72
2022/05/08 00:28:55;;;;;;;8.48;3.83;;;18.40;65.40;;;;;;5034036;28;20025;-73
2022/05/08 00:31:21;;;;;;;8.20;3.53;;;18.30;65.30;;;;;;5033865;28;20017;-72
2022/05/08 00:33:47;;;;;;;7.55;3.13;;;18.40;65.70;;;;;;5033962;28;20474;-72
2022/05/08 00:36:12;;;;;;;8.00;3.72;;;18.40;65.50;;;;;;5033957;28;20509;-74
2022/05/08 00:38:38;;;;;;;6.43;3.60;;;18.40;65.40;;;;;;5033923;28;20048;-75
2022/05/08 00:41:04;;;;;;;6.07;3.38;;;18.40;65.50;;;;;;5033948;28;20029;-72
2022/05/08 00:43:32;;;;;;;8.15;3.80;;;18.40;65.80;;;;;;5034092;28;20029;-74
2022/05/08 00:45:59;;;;;;;7.00;3.50;;;18.40;65.90;;;;;;5033956;28;20451;-72
2022/05/08 00:48:25;;;;;;;5.75;3.30;;;18.40;65.60;;;;;;5033813;28;20025;-73
2022/05/08 00:50:52;;;;;;;7.40;3.78;;;18.40;66.10;;;;;;5033708;28;20032;-74
2022/05/08 00:53:18;;;;;;;7.32;3.40;;;18.40;66.40;;;;;;5033783;28;20040;-73
2022/05/08 00:55:45;;;;;;;6.65;3.70;;;18.30;66.50;;;;;;5033557;28;20025;-74
2022/05/08 00:58:11;;;;;;;5.70;3.60;;;18.30;66.90;;;;;;5033743;28;20025;-73
2022/05/08 01:00:37;;;;;;;8.90;3.88;;;18.30;67.40;;;;;;5033679;28;20088;-73
2022/05/08 01:03:03;;;;;;;6.95;3.40;;;18.20;67.20;;;;;;5033693;28;20475;-74
2022/05/08 01:05:29;;;;;;;6.68;3.53;;;18.20;67.80;;;;;;5033767;28;20013;-70
2022/05/08 01:07:55;;;;;;;10.10;3.53;;;18.20;67.90;;;;;;5033535;28;20490;-71
2022/05/08 01:10:22;;;;;;;7.30;3.78;;;18.10;67.90;;;;;;5033593;28;20022;-72
2022/05/08 01:12:47;;;;;;;6.97;4.03;;;18.10;68.30;;;;;;5033623;28;20101;-73
2022/05/08 01:15:15;;;;;;;8.15;3.65;;;18.10;68.40;;;;;;5033497;28;20049;-74
2022/05/08 01:17:42;;;;;;;9.57;3.80;;;18.10;68.60;;;;;;5033525;28;20387;-73
2022/05/08 01:20:08;;;;;;;8.50;4.00;;;18.10;69.10;;;;;;5033399;28;20502;-73
2022/05/08 01:22:33;;;;;;;6.55;3.88;;;18.10;69.00;;;;;;5032727;28;20041;-72
2022/05/08 01:25:04;;;;;;;6.18;3.47;;;18.10;69.20;;;;;;5033303;28;20071;-71
2022/05/08 01:27:30;;;;;;;9.40;4.30;;;18.10;69.30;;;;;;5031824;28;20030;-72
2022/05/08 01:29:56;;;;;;;10.68;3.50;;;18.10;69.20;;;;;;5033295;28;20018;-74
2022/05/08 01:32:22;;;;;;;6.97;3.45;;;18.10;69.10;;;;;;5033403;28;20057;-74
2022/05/08 01:34:47;;;;;;;7.40;3.50;;;18.10;69.10;;;;;;5033044;28;20056;-72
2022/05/08 01:37:13;;;;;;;8.25;3.33;;;18.10;69.10;;;;;;5033000;28;20057;-72
2022/05/08 01:39:39;;;;;;;6.40;3.50;;;18.10;69.00;;;;;;5033119;28;20467;-71
2022/05/08 01:42:06;;;;;;;7.45;3.42;;;18.10;69.20;;;;;;5033068;28;20044;-69
2022/05/08 01:44:32;;;;;;;10.52;4.35;;;18.20;69.20;;;;;;5038154;28;20037;-70
2022/05/08 01:49:43;;;;;;;6.60;3.92;;;18.10;68.90;;;;;;5033070;28;20056;-68
2022/05/08 01:52:09;;;;;;;5.70;3.30;;;18.10;69.00;;;;;;5033134;28;20022;-69
2022/05/08 01:54:35;;;;;;;5.93;3.50;;;18.20;69.00;;;;;;5032971;28;20041;-69
2022/05/08 01:57:01;;;;;;;8.77;3.47;;;18.20;69.20;;;;;;5033008;28;20382;-70
2022/05/08 01:59:27;;;;;;;6.50;4.03;;;18.10;69.30;;;;;;5033249;28;20112;-70
2022/05/08 02:01:53;;;;;;;9.45;3.92;;;18.10;69.50;;;;;;5032901;28;20041;-69
2022/05/08 02:04:19;;;;;;;8.73;3.55;;;18.10;69.70;;;;;;5033032;28;20071;-69
2022/05/08 02:06:45;;;;;;;7.78;3.60;;;18.10;70.10;;;;;;5032876;28;20021;-69
2022/05/08 02:09:11;;;;;;;6.43;3.80;;;18.00;70.30;;;;;;5032845;28;20022;-68
2022/05/08 02:11:37;;;;;;;6.88;3.75;;;17.90;70.50;;;;;;5032873;28;20034;-70
2022/05/08 02:14:04;;;;;;;8.18;4.05;;;17.90;71.10;;;;;;5032988;28;20024;-69
2022/05/08 02:16:30;;;;;;;8.68;3.90;;;17.90;71.40;;;;;;5031723;28;20406;-69
2022/05/08 02:18:56;;;;;;;7.18;3.53;;;17.90;71.70;;;;;;5032930;28;20040;-71
2022/05/08 02:21:22;;;;;;;9.02;3.63;;;17.90;72.40;;;;;;5033177;28;20026;-71
2022/05/08 02:23:47;;;;;;;10.80;4.68;;;17.90;72.80;;;;;;5033316;28;20112;-71
2022/05/08 02:26:13;;;;;;;8.43;4.18;;;17.90;73.10;;;;;;5033039;28;20033;-73
2022/05/08 02:28:39;;;;;;;11.10;3.70;;;17.80;72.90;;;;;;5032827;28;20030;-69
2022/05/08 02:31:05;;;;;;;6.88;3.75;;;17.90;73.30;;;;;;5032791;28;20033;-71
2022/05/08 02:33:32;;;;;;;7.00;3.67;;;17.80;73.50;;;;;;5034287;28;20463;-70
2022/05/08 02:35:58;;;;;;;7.95;3.88;;;17.80;74.10;;;;;;5036598;28;20099;-71
2022/05/08 02:38:25;;;;;;;7.05;4.43;;;17.80;74.00;;;;;;5036416;28;20021;-70
2022/05/08 02:40:54;;;;;;;8.02;4.20;;;17.80;73.90;;;;;;5036302;28;20064;-71
2022/05/08 02:43:21;;;;;;;8.00;4.00;;;17.90;74.60;;;;;;5036334;28;20127;-73
2022/05/08 02:45:49;;;;;;;6.60;3.72;;;17.90;74.10;;;;;;5036168;28;20107;-72
2022/05/08 02:48:15;;;;;;;8.77;4.25;;;17.90;74.20;;;;;;5036326;28;20099;-72
2022/05/08 02:50:40;;;;;;;9.23;4.40;;;17.90;74.60;;;;;;5036511;28;20507;-75
2022/05/08 02:53:06;;;;;;;8.55;5.18;;;17.90;74.70;;;;;;5036694;28;20025;-74
2022/05/08 02:58:34;;;;;;;10.80;5.00;;;17.90;76.00;;;;;;5036268;28;20094;-73
2022/05/08 03:01:01;;;;;;;7.20;4.68;;;17.80;76.30;;;;;;5035949;28;20025;-73
2022/05/08 03:03:27;;;;;;;10.43;4.82;;;17.80;76.30;;;;;;5035832;28;20125;-73
2022/05/08 03:05:53;;;;;;;9.55;5.13;;;17.80;77.60;;;;;;5034626;28;20114;-73
2022/05/08 03:08:19;;;;;;;9.85;4.80;;;17.70;76.70;;;;;;5035707;28;20494;-73
2022/05/08 03:13:37;;;;;;;13.82;4.32;;;17.60;76.70;;;;;;5035613;28;20037;-74
2022/05/08 03:16:04;;;;;;;8.55;4.22;;;17.50;76.90;;;;;;5035875;28;20100;-69
2022/05/08 03:18:30;;;;;;;7.75;4.57;;;17.50;77.30;;;;;;5035827;28;20502;-73
2022/05/08 03:20:56;;;;;;;9.00;4.88;;;17.50;77.10;;;;;;5035550;28;20112;-72
2022/05/08 03:23:22;;;;;;;8.65;4.53;;;17.50;77.20;;;;;;5035481;28;20399;-70
2022/05/08 03:25:47;;;;;;;9.00;4.38;;;17.50;77.10;;;;;;5035478;28;20036;-73
2022/05/08 03:28:15;;;;;;;6.93;4.05;;;17.50;77.30;;;;;;5035372;28;20025;-74
2022/05/08 03:30:41;;;;;;;9.82;4.93;;;17.40;76.90;;;;;;5035287;28;20467;-74
2022/05/08 03:33:08;;;;;;;8.20;4.50;;;17.40;77.20;;;;;;5035255;28;20390;-73
2022/05/08 03:35:38;;;;;;;8.30;4.13;;;17.30;77.20;;;;;;5034994;28;20024;-70
2022/05/08 03:38:05;;;;;;;8.75;4.22;;;17.30;77.10;;;;;;5035330;28;20045;-71
2022/05/08 03:40:32;;;;;;;11.63;4.32;;;17.30;77.00;;;;;;5035238;28;20025;-71
2022/05/08 03:42:58;;;;;;;6.55;3.72;;;17.20;76.90;;;;;;5035042;28;20068;-69
2022/05/08 03:45:25;;;;;;;6.97;4.00;;;17.20;76.80;;;;;;5034221;28;20021;-69
2022/05/08 03:47:51;;;;;;;8.02;4.22;;;17.20;76.50;;;;;;5035056;28;20117;-69
2022/05/08 03:50:19;;;;;;;9.90;4.53;;;17.20;76.30;;;;;;5034953;28;20029;-70
2022/05/08 03:52:44;;;;;;;10.38;4.40;;;17.20;76.10;;;;;;5034957;28;20029;-70
2022/05/08 03:55:11;;;;;;;8.98;4.10;;;17.20;75.80;;;;;;5034836;28;20075;-69
2022/05/08 03:57:37;;;;;;;8.43;4.00;;;17.20;75.70;;;;;;5035251;28;20340;-73
2022/05/08 04:00:04;;;;;;;9.38;4.07;;;17.20;75.60;;;;;;5034828;28;20024;-73
2022/05/08 04:02:30;;;;;;;8.48;4.50;;;17.10;75.60;;;;;;5034779;28;20061;-71
2022/05/08 04:04:56;;;;;;;9.50;3.90;;;17.10;75.40;;;;;;5034539;28;20025;-70
2022/05/08 04:07:22;;;;;;;7.63;4.18;;;17.20;75.50;;;;;;5034338;28;20037;-70
2022/05/08 04:09:47;;;;;;;9.30;4.10;;;17.20;75.30;;;;;;5034772;28;20100;-73
2022/05/08 04:12:13;;;;;;;10.82;4.38;;;17.30;75.50;;;;;;5034530;28;20029;-70
2022/05/08 04:14:39;;;;;;;10.15;4.30;;;17.20;75.20;;;;;;5033118;28;20109;-70
2022/05/08 04:17:04;;;;;;;10.98;4.25;;;17.20;75.00;;;;;;5034448;28;20021;-72
2022/05/08 04:19:30;;;;;;;11.05;4.40;;;17.20;75.20;;;;;;5033286;28;20527;-73
2022/05/08 04:24:16;;;;;;;9.45;4.53;;;17.20;75.60;;;;;;5034376;28;20037;-73
2022/05/08 04:24:42;;;;;;;12.57;4.60;;;17.10;75.80;;;;;;5034147;28;20076;-72
2022/05/08 04:27:08;;;;;;;8.63;4.75;;;17.10;75.80;;;;;;5034368;28;20454;-73
2022/05/08 04:29:33;;;;;;;11.77;4.63;;;17.10;75.90;;;;;;5032889;28;20021;-73
2022/05/08 04:31:59;;;;;;;7.68;4.10;;;17.00;75.70;;;;;;5034166;28;20026;-73
2022/05/08 04:34:25;;;;;;;10.50;4.57;;;17.00;75.80;;;;;;5034104;28;20370;-69
2022/05/08 04:36:50;;;;;;;12.10;4.75;;;17.00;75.80;;;;;;5034004;28;20419;-70
2022/05/08 04:39:17;;;;;;;9.30;3.67;;;17.00;75.60;;;;;;5034048;28;20071;-72
2022/05/08 04:41:43;;;;;;;10.48;4.20;;;17.10;75.80;;;;;;5034039;28;20120;-72
2022/05/08 04:44:09;;;;;;;11.80;4.25;;;17.10;75.50;;;;;;5033724;28;20474;-70
2022/05/08 04:46:35;;;;;;;9.57;4.07;;;17.20;75.40;;;;;;5034236;28;20025;-70
2022/05/08 04:49:00;;;;;;;11.48;4.20;;;17.20;75.10;;;;;;5036459;28;20075;-73
2022/05/08 04:51:26;;;;;;;8.43;3.67;;;17.20;75.30;;;;;;5039690;28;20036;-73
2022/05/08 04:53:52;;;;;;;10.40;4.07;;;17.20;75.20;;;;;;5040003;28;20490;-70
2022/05/08 04:56:18;;;;;;;7.07;3.83;;;17.30;75.10;;;;;;5037041;28;20121;-70
2022/05/08 04:58:44;;;;;;;11.85;5.05;;;17.30;74.90;;;;;;5033742;28;20453;-71
2022/05/08 05:01:10;;;;;;;7.63;4.35;;;17.40;74.80;;;;;;5033645;28;20470;-70
2022/05/08 05:03:36;;;;;;;7.80;3.95;;;17.50;74.30;;;;;;5033524;28;20092;-74
2022/05/08 05:06:02;;;;;;;9.27;4.65;;;17.60;73.90;;;;;;5032044;28;20027;-74
2022/05/08 05:08:28;;;;;;;13.13;4.30;;;17.70;73.60;;;;;;5033707;28;20025;-71
2022/05/08 05:10:54;;;;;;;7.75;3.95;;;17.80;73.30;;;;;;5032395;28;20026;-73
2022/05/08 05:13:19;;;;;;;7.90;3.75;;;17.70;72.50;;;;;;5033646;28;20108;-72
2022/05/08 05:15:45;;;;;;;11.30;3.90;;;17.70;72.10;;;;;;5033619;28;20025;-72
2022/05/08 05:18:11;;;;;;;7.55;4.50;;;17.70;71.90;;;;;;5032473;28;20033;-74
2022/05/08 05:20:37;;;;;;;8.57;4.22;;;17.60;71.80;;;;;;5033553;28;20021;-74
2022/05/08 05:23:03;;;;;;;10.70;4.05;;;17.70;71.70;;;;;;5033517;28;20038;-72
2022/05/08 05:25:29;;;;;;;8.98;4.30;;;17.70;71.30;;;;;;5033369;28;20459;-69
2022/05/08 05:27:56;;;;;;;11.07;3.95;;;17.80;71.00;;;;;;5033355;28;20025;-70
2022/05/08 05:30:21;;;;;;;10.10;4.18;;;17.80;70.90;;;;;;5033624;28;20026;-71
2022/05/08 05:32:47;;;;;;;11.52;4.45;;;17.90;70.80;;;;;;5033277;28;20481;-73
2022/05/08 05:35:13;;;;;;;9.90;4.10;;;17.80;70.70;;;;;;5033221;28;20030;-73
2022/05/08 05:37:39;;;;;;;10.35;4.35;;;17.80;70.40;;;;;;5033030;28;20037;-72
2022/05/08 05:40:08;;;;;;;13.38;4.38;;;17.70;70.60;;;;;;5033321;28;20106;-69
2022/05/08 05:42:34;;;;;;;10.82;4.05;;;17.80;70.50;;;;;;5033046;28;20025;-75
2022/05/08 05:45:00;;;;;;;9.45;3.90;;;17.80;70.00;;;;;;5033184;28;20029;-73
2022/05/08 05:50:10;;;;;;;;;;;17.90;70.00;;;;;;5033729;28;20103;-72
2022/05/08 05:52:37;;;;;;;11.70;4.30;;;18.00;69.90;;;;;;5033121;28;19983;-74
2022/05/08 05:55:06;;;;;;;12.38;3.90;;;18.20;68.80;;;;;;5033029;28;20041;-73
2022/05/08 05:57:32;;;;;;;9.00;3.83;;;18.30;68.60;;;;;;5032897;28;20026;-70
2022/05/08 05:59:58;;;;;;;9.45;4.10;;;18.40;68.30;;;;;;5033059;28;20475;-71
2022/05/08 06:02:24;;;;;;;10.70;3.95;;;18.60;67.90;;;;;;5032828;28;20044;-70
2022/05/08 06:04:50;;;;;;;12.35;4.20;;;18.70;67.00;;;;;;5032831;28;20467;-71
2022/05/08 06:07:16;;;;;;;9.00;3.60;;;18.70;66.40;;;;;;5032935;28;20029;-70
2022/05/08 06:09:42;;;;;;;12.18;4.40;;;18.80;66.40;;;;;;5036243;28;20021;-72
2022/05/08 06:12:07;;;;;;;9.95;4.55;;;19.00;66.30;;;;;;5036779;28;20576;-72
2022/05/08 06:14:33;;;;;;;10.80;4.30;;;19.10;65.40;;;;;;5036710;28;20130;-70
2022/05/08 06:16:59;;;;;;;7.20;3.42;;;19.10;65.40;;;;;;5036706;28;20032;-69
2022/05/08 06:19:25;;;;;;;9.07;3.60;;;19.00;65.60;;;;;;5036835;28;20025;-71
2022/05/08 06:21:52;;;;;;;8.55;3.95;;;19.00;66.20;;;;;;5036536;28;20030;-73
2022/05/08 06:24:17;;;;;;;12.55;4.38;;;19.00;65.70;;;;;;5035217;28;20038;-76
2022/05/08 06:26:43;;;;;;;11.82;4.10;;;19.00;66.30;;;;;;5036449;28;20044;-69
2022/05/08 06:29:09;;;;;;;8.18;3.97;;;19.10;65.90;;;;;;5036587;28;20017;-70
2022/05/08 06:31:35;;;;;;;13.32;4.10;;;19.00;65.60;;;;;;5036163;28;20493;-70
2022/05/08 06:34:00;;;;;;;7.53;4.03;;;19.00;65.80;;;;;;5036071;28;20680;-68
2022/05/08 06:36:26;;;;;;;8.38;3.78;;;19.10;65.80;;;;;;5036057;28;20049;-72
2022/05/08 06:38:52;;;;;;;8.55;3.50;;;19.10;66.40;;;;;;5036433;28;20021;-73
2022/05/08 06:41:19;;;;;;;13.05;3.88;;;19.20;66.40;;;;;;5036286;28;20108;-75
2022/05/08 06:43:44;;;;;;;9.27;4.13;;;19.50;66.20;;;;;;5036191;28;20076;-74
2022/05/08 06:46:11;;;;;;;11.23;3.80;;;19.80;65.40;;;;;;5036175;28;20057;-70
2022/05/08 06:48:38;;;;;;;8.68;4.53;;;20.10;64.80;;;;;;5036301;28;20021;-69
2022/05/08 06:51:04;;;;;;;9.45;3.97;;;20.30;63.80;;;;;;5036233;28;20112;-70
2022/05/08 06:53:31;;;;;;;8.07;3.45;;;20.40;62.90;;;;;;5035951;28;20040;-71
2022/05/08 06:55:57;;;;;;;11.13;3.33;;;20.40;62.40;;;;;;5034508;28;20032;-69
2022/05/08 06:58:24;;;;;;;8.05;4.13;;;20.40;62.00;;;;;;5036329;28;20025;-73
2022/05/08 07:03:36;;;;;;;10.60;4.03;;;20.40;62.60;;;;;;5036235;28;20060;-74
2022/05/08 07:06:02;;;;;;;10.48;3.72;;;20.40;61.90;;;;;;5036086;28;20427;-72
2022/05/08 07:08:28;;;;;;;9.38;4.10;;;20.50;62.10;;;;;;5034389;28;20068;-76
2022/05/08 07:10:54;;;;;;;9.45;3.75;;;20.50;62.10;;;;;;5035964;28;20053;-74
2022/05/08 07:13:26;;;;;;;12.05;4.15;;;20.50;61.90;;;;;;5035713;28;20025;-74
2022/05/08 07:15:53;;;;;;;12.27;4.70;;;20.50;61.10;;;;;;5034263;28;20356;-74
2022/05/08 07:18:21;;;;;;;10.52;4.70;;;20.40;61.80;;;;;;5033573;28;20025;-74
2022/05/08 07:20:47;;;;;;;12.65;3.80;;;20.50;61.20;;;;;;5033907;28;20025;-72
2022/05/08 07:23:13;;;;;;;6.68;3.40;;;20.60;61.50;;;;;;5035335;28;20040;-74
2022/05/08 07:25:39;;;;;;;6.95;3.20;;;20.70;61.80;;;;;;5033974;28;20036;-73
2022/05/08 07:28:05;;;;;;;8.35;3.33;;;20.60;61.10;;;;;;5035302;28;20425;-73
2022/05/08 07:30:31;;;;;;;9.55;3.60;;;20.70;61.00;;;;;;5035191;28;20109;-68
2022/05/08 07:33:00;;;;;;;12.85;3.90;;;20.80;60.80;;;;;;5034926;28;20053;-68
2022/05/08 07:38:10;;;;;;;9.35;3.75;;;21.00;59.70;;;;;;5035066;28;20040;-67
2022/05/08 07:40:36;;;;;;;11.38;4.45;;;21.20;60.40;;;;;;5035151;28;20021;-70
2022/05/08 07:43:03;;;;;;;10.68;3.42;;;21.30;60.30;;;;;;5034566;28;20424;-74
2022/05/08 07:45:29;;;;;;;9.73;4.22;;;21.40;60.10;;;;;;5033996;28;20026;-72
2022/05/08 07:47:55;;;;;;;8.45;4.18;;;21.50;60.00;;;;;;5033237;28;20042;-75
2022/05/08 07:50:21;;;;;;;8.70;4.07;;;21.50;59.30;;;;;;5034399;28;20045;-73
2022/05/08 07:52:47;;;;;;;21.40;4.53;;;21.60;59.40;;;;;;5034733;28;20069;-69
2022/05/08 07:55:13;;;;;;;16.02;4.15;;;21.80;59.00;;;;;;5038758;28;20100;-73
2022/05/08 07:57:38;;;;;;;17.90;4.28;;;21.90;58.80;;;;;;5032462;28;20597;-71
2022/05/08 08:00:05;;;;;;;12.38;4.90;;;21.90;58.20;;;;;;5018365;28;20021;-71
2022/05/08 08:02:31;;;;;;;11.60;4.97;;;21.80;57.80;;;;;;5014562;28;20491;-68
2022/05/08 08:04:57;;;;;;;11.30;4.18;;;21.90;58.30;;;;;;5021305;28;20018;-75
2022/05/08 08:07:23;;;;;;;12.45;3.95;;;21.80;58.30;;;;;;5027831;28;20037;-75
2022/05/08 08:09:49;;;;;;;12.40;4.07;;;21.70;58.40;;;;;;5030206;28;20475;-72
2022/05/08 08:12:22;;;;;;;10.05;3.63;;;21.60;58.70;;;;;;5030121;28;20033;-82
2022/05/08 08:14:49;;;;;;;;;;;21.60;57.90;;;;;;5028612;28;20068;-79
2022/05/08 08:17:15;;;;;;;8.52;3.50;;;21.70;58.30;;;;;;5020496;28;20350;-73
2022/05/08 08:19:41;;;;;;;9.85;3.97;;;21.70;58.80;;;;;;5029534;28;20066;-71
2022/05/08 08:22:07;;;;;;;13.88;6.57;;;21.70;58.70;;;;;;5025038;28;20081;-76
2022/05/08 08:24:34;;;;;;;11.45;4.85;;;21.80;58.70;;;;;;5020061;28;20021;-76
2022/05/08 08:27:01;;;;;;;10.38;4.05;;;21.90;58.90;;;;;;5032702;28;20095;-75
2022/05/08 08:29:28;;;;;;;14.77;4.78;;;22.00;58.50;;;;;;5032924;28;20136;-77
2022/05/08 08:31:55;;;;;;;10.70;3.78;;;22.10;58.20;;;;;;5016783;28;20030;-76
2022/05/08 08:34:22;;;;;;;12.32;3.80;;;22.30;58.40;;;;;;5032100;28;20114;-75
2022/05/08 08:36:49;;;;;;;15.65;4.05;;;22.40;58.00;;;;;;5028518;28;20133;-76
2022/05/08 08:39:16;;;;;;;10.18;3.85;;;22.40;57.50;;;;;;5034166;28;20402;-76
2022/05/08 08:41:47;;;;;;;13.77;4.93;;;22.40;57.60;;;;;;5033526;28;20046;-75
2022/05/08 08:49:52;;;;;;;15.15;3.60;;;22.20;57.10;;;;;;5034103;28;20152;-78
2022/05/08 08:52:21;;;;;;;10.95;3.33;;;22.20;56.80;;;;;;5033755;28;20024;-75
2022/05/08 08:54:46;;;;;;;10.27;3.45;;;22.20;57.40;;;;;;5033276;28;20030;-74
2022/05/08 08:57:13;;;;;;;12.75;3.30;;;22.20;57.00;;;;;;5033397;28;20037;-74
2022/05/08 08:59:38;;;;;;;10.02;3.35;;;22.20;56.60;;;;;;5033565;28;20032;-73
2022/05/08 09:02:15;;;;;;;10.50;3.25;;;22.20;56.90;;;;;;5033346;28;20029;-72
2022/05/08 09:04:42;;;;;;;19.15;4.15;;;22.30;55.80;;;;;;5033516;28;20378;-74
2022/05/08 09:07:33;;;;;;;11.15;3.60;;;22.40;55.70;;;;;;5033367;28;20047;-73
2022/05/08 09:10:21;;;;;;;7.95;2.90;;;22.50;54.50;;;;;;5032979;28;20098;-71
2022/05/08 09:12:52;;;;;;;13.80;4.25;;;22.50;52.80;;;;;;5031900;28;20022;-75
2022/05/08 09:15:23;;;;;;;11.38;3.55;;;22.60;53.00;;;;;;5033052;28;20065;-68
2022/05/08 09:17:51;;;;;;;9.52;3.00;;;22.70;52.60;;;;;;5033188;28;20030;-73
2022/05/08 09:20:48;;;;;;;12.00;3.50;;;22.80;52.90;;;;;;5033154;28;20049;-74
2022/05/08 09:23:15;;;;;;;13.13;4.10;;;22.90;53.10;;;;;;5031739;28;20041;-77
2022/05/08 09:25:46;;;;;;;14.25;3.53;;;23.00;53.30;;;;;;5033097;28;20366;-75
2022/05/08 09:28:16;;;;;;;9.73;4.28;;;23.10;51.40;;;;;;5033110;28;20493;-74
2022/05/08 09:30:55;;;;;;;12.55;3.88;;;23.20;52.10;;;;;;5033024;28;20037;-75
2022/05/08 09:33:31;;;;;;;17.42;3.40;;;23.40;51.80;;;;;;5029877;28;20464;-75
2022/05/08 09:35:59;;;;;;;12.10;3.38;;;23.50;51.10;;;;;;5021593;28;20042;-76
2022/05/08 09:38:43;;;;;;;10.55;3.92;;;23.70;51.00;;;;;;5019222;28;20486;-73
2022/05/08 09:41:09;;;;;;;9.93;3.25;;;23.70;50.60;;;;;;5033491;28;20087;-71
2022/05/08 09:43:36;;;;;;;12.65;3.35;;;23.70;50.10;;;;;;5034907;28;20040;-72
2022/05/08 09:46:04;;;;;;;16.23;7.30;;;23.70;50.00;;;;;;5037124;28;20386;-72
2022/05/08 09:48:32;;;;;;;14.65;4.63;;;23.80;50.30;;;;;;5037160;28;20032;-75
2022/05/08 09:51:02;;;;;;;11.20;3.28;;;23.90;50.10;;;;;;5036942;28;20025;-76
2022/05/08 09:53:28;;;;;;;10.55;3.30;;;23.80;49.50;;;;;;5037105;28;20128;-76
2022/05/08 09:56:00;;;;;;;11.90;3.38;;;23.80;50.10;;;;;;5037245;28;20060;-76
2022/05/08 09:58:26;;;;;;;8.63;3.72;;;23.80;50.20;;;;;;5036830;28;20021;-77
2022/05/08 10:00:54;;;;;;;9.10;3.17;;;23.80;50.10;;;;;;5036858;28;20028;-73
2022/05/08 10:03:20;;;;;;;10.80;3.50;;;23.80;50.20;;;;;;5036682;28;20080;-74
2022/05/08 10:05:46;;;;;;;9.45;3.15;;;23.80;50.00;;;;;;5036738;28;20033;-72
2022/05/08 10:08:13;;;;;;;12.40;3.70;;;23.90;49.40;;;;;;5036802;28;20053;-74
2022/05/08 10:16:46;;;;;;;11.45;3.28;;;24.10;50.20;;;;;;5019198;28;20391;-73
2022/05/08 10:19:18;;;;;;;10.60;3.83;;;24.20;47.50;;;;;;5031330;28;20040;-71
2022/05/08 10:22:12;;;;;;;12.45;3.33;;;24.20;48.80;;;;;;5036416;28;20121;-75
2022/05/08 10:24:40;;;;;;;14.25;3.47;;;24.30;47.00;;;;;;5034473;28;20045;-74
2022/05/08 10:27:24;;;;;;;20.98;3.95;;;24.50;46.10;;;;;;5019219;28;20061;-75
2022/05/08 10:29:50;;;;;;;;;;;24.70;47.30;;;;;;5035604;28;20032;-72
2022/05/08 10:32:33;;;;;;;9.75;3.80;;;24.80;44.80;;;;;;5036701;28;20346;-74
2022/05/08 10:35:16;;;;;;;9.80;3.60;;;24.80;46.90;;;;;;5036234;28;20362;-78
2022/05/08 10:37:43;;;;;;;11.68;3.72;;;25.00;45.10;;;;;;5035971;28;20057;-71
2022/05/08 10:40:24;;;;;;;13.57;3.67;;;24.90;45.90;;;;;;5036622;28;20034;-77
2022/05/08 10:42:57;;;;;;;11.88;2.75;;;24.90;46.90;;;;;;5036261;28;20313;-73
2022/05/08 10:45:37;;;;;;;13.90;3.72;;;25.00;45.90;;;;;;5033217;28;20044;-72
2022/05/08 10:48:18;;;;;;;12.60;3.20;;;24.90;45.60;;;;;;5025015;28;20044;-75
2022/05/08 10:50:59;;;;;;;11.07;3.40;;;24.90;44.90;;;;;;5022735;28;20025;-75
2022/05/08 10:53:29;;;;;;;11.45;3.35;;;24.80;46.10;;;;;;5037069;28;20534;-75
2022/05/08 10:56:06;;;;;;;9.52;3.50;;;24.80;45.50;;;;;;5036424;28;20391;-74
2022/05/08 10:58:33;;;;;;;13.25;3.42;;;24.90;45.50;;;;;;5036038;28;20061;-74
2022/05/08 11:01:02;;;;;;;13.13;3.67;;;24.80;45.10;;;;;;5036578;28;20034;-72
2022/05/08 11:03:29;;;;;;;12.35;3.58;;;24.90;46.40;;;;;;5036771;28;20036;-74
2022/05/08 11:05:56;;;;;;;10.00;3.15;;;24.80;46.10;;;;;;5036813;28;20105;-75
2022/05/08 11:08:28;;;;;;;13.82;3.78;;;24.80;46.30;;;;;;5036908;28;20064;-73
2022/05/08 11:11:02;;;;;;;14.85;3.80;;;24.80;46.50;;;;;;5036437;28;20095;-73
2022/05/08 11:13:47;;;;;;;13.90;3.60;;;24.80;44.80;;;;;;5035936;28;20063;-72
2022/05/08 11:16:29;;;;;;;12.68;4.35;;;24.80;44.60;;;;;;5035693;28;20029;-76
2022/05/08 11:18:58;;;;;;;13.52;4.28;;;24.80;46.50;;;;;;5035583;28;20559;-78
2022/05/08 11:21:26;;;;;;;8.98;3.92;;;24.90;46.10;;;;;;5035553;28;20038;-74
2022/05/08 11:23:54;;;;;;;11.05;3.60;;;24.90;45.90;;;;;;5029002;28;20032;-72
2022/05/08 11:26:30;;;;;;;17.60;4.35;;;24.90;45.70;;;;;;5048123;28;20026;-75
2022/05/08 11:28:58;;;;;;;22.33;4.88;;;24.90;44.80;;;;;;5035757;28;20018;-74
2022/05/08 11:31:25;;;;;;;11.45;3.50;;;24.90;46.00;;;;;;5035800;28;20049;-70
2022/05/08 11:36:38;;;;;;;11.93;4.25;;;24.80;45.50;;;;;;5035025;28;20084;-74
2022/05/08 11:39:05;;;;;;;14.48;3.97;;;24.80;46.50;;;;;;5034517;28;20033;-71
2022/05/08 11:41:47;;;;;;;12.93;4.13;;;24.90;45.70;;;;;;5034519;28;20026;-72
2022/05/08 11:44:20;;;;;;;11.98;3.90;;;25.00;46.50;;;;;;5034607;28;20022;-69
2022/05/08 11:46:49;;;;;;;10.95;4.50;;;24.90;46.30;;;;;;5034730;28;20017;-73
2022/05/08 11:49:29;;;;;;;15.52;4.35;;;25.00;46.40;;;;;;5034713;28;20026;-71
2022/05/08 11:52:01;;;;;;;15.80;4.05;;;25.00;46.50;;;;;;5033059;28;20038;-74
2022/05/08 11:54:35;;;;;;;12.98;4.43;;;25.00;46.30;;;;;;5034287;28;20055;-72
2022/05/08 11:57:17;;;;;;;11.45;4.25;;;25.10;44.70;;;;;;5034495;28;20386;-69
2022/05/08 11:59:47;;;;;;;15.18;4.63;;;25.00;46.10;;;;;;5034287;28;20025;-74
2022/05/08 12:02:14;;;;;;;10.95;4.43;;;25.00;46.20;;;;;;5032851;28;20060;-69
2022/05/08 12:04:41;;;;;;;13.10;4.28;;;25.10;46.10;;;;;;5033992;28;20421;-72
2022/05/08 12:07:07;;;;;;;13.30;4.18;;;25.10;46.90;;;;;;5033441;28;20025;-72
2022/05/08 12:09:37;;;;;;;19.33;4.18;;;25.10;46.80;;;;;;5034009;28;20036;-70
2022/05/08 12:12:26;;;;;;;8.85;3.35;;;25.00;46.60;;;;;;5034047;28;20022;-68
2022/05/08 12:14:53;;;;;;;11.90;3.17;;;25.00;45.50;;;;;;5033938;28;20044;-71
2022/05/08 12:17:20;;;;;;;11.68;3.17;;;24.80;46.60;;;;;;5034082;28;20041;-70
2022/05/08 12:20:00;;;;;;;8.20;3.30;;;24.60;46.70;;;;;;5033925;28;20129;-71
2022/05/08 12:22:30;;;;;;;7.93;3.38;;;24.60;47.20;;;;;;5033797;28;20497;-72
2022/05/08 12:25:00;;;;;;;9.30;3.58;;;24.70;46.10;;;;;;5033948;28;20111;-72
2022/05/08 12:27:34;;;;;;;12.82;3.90;;;24.70;47.90;;;;;;5031234;28;20051;-69
2022/05/08 12:30:02;;;;;;;10.18;4.07;;;24.70;47.90;;;;;;5020835;28;20017;-69
2022/05/08 12:32:28;;;;;;;10.52;4.00;;;24.70;47.20;;;;;;5026745;28;20120;-69
2022/05/08 12:34:56;;;;;;;10.73;3.30;;;24.70;46.00;;;;;;5013982;28;20579;-70
2022/05/08 12:37:22;;;;;;;11.35;4.10;;;24.60;45.70;;;;;;5013136;28;20065;-70
2022/05/08 12:39:48;;;;;;;11.48;3.90;;;24.60;47.30;;;;;;5013781;28;20026;-70
2022/05/08 12:42:14;;;;;;;12.23;4.07;;;24.60;46.40;;;;;;5013659;28;20472;-70
2022/05/08 12:44:40;;;;;;;9.85;4.15;;;24.70;46.80;;;;;;5018916;28;20068;-70
2022/05/08 12:47:08;;;;;;;10.32;3.75;;;24.70;47.70;;;;;;5033623;28;20053;-69
2022/05/08 12:49:35;;;;;;;10.48;3.80;;;24.80;46.20;;;;;;5031756;28;20112;-72
2022/05/08 12:52:03;;;;;;;6.88;3.15;;;24.90;47.00;;;;;;5025236;28;20080;-68
2022/05/08 12:54:29;;;;;;;7.38;2.90;;;24.90;46.70;;;;;;5033252;28;20045;-69
2022/05/08 12:56:55;;;;;;;19.48;4.97;;;24.80;44.90;;;;;;5033411;28;20037;-70
2022/05/08 13:02:05;;;;;;;6.25;2.47;;;24.70;45.00;;;;;;5032444;28;20395;-70
2022/05/08 13:04:31;;;;;;;8.13;2.47;;;24.70;44.80;;;;;;5033275;28;20034;-69
2022/05/08 13:06:56;;;;;;;10.75;2.65;;;24.70;44.10;;;;;;5031625;28;20060;-70
2022/05/08 13:09:22;;;;;;;4.00;1.77;;;24.80;44.90;;;;;;5033157;28;20029;-68
2022/05/08 13:11:48;;;;;;;5.15;2.58;;;24.80;44.00;;;;;;5032935;28;20390;-70
2022/05/08 13:14:14;;;;;;;7.82;2.35;;;24.70;44.00;;;;;;5032948;28;20095;-70
2022/05/08 13:16:40;;;;;;;8.05;2.28;;;24.60;43.60;;;;;;5032887;28;20030;-67
2022/05/08 13:19:06;;;;;;;11.48;3.28;;;24.60;43.90;;;;;;5032832;28;20389;-68
2022/05/08 13:21:32;;;;;;;7.40;2.47;;;24.70;44.00;;;;;;5032447;28;20480;-70